Time;durP1;ratioP1;P1;durP2;ratioP2;P2;SDS_P1;SDS_P2;PMS_P1;PMS_P2;Temp;Humidity;BMP_temperature;BMP_pressure;BME280_temperature;BME280_humidity;BME280_pressure;Samples;Min_cycle;Max_cycle;Signal;HPM_P1;HPM_P2
2021/04/09 00:00:09;;;;;;;12.93;7.60;;;;;;;-1.34;100.00;96338.53;1019900;29;20079;-51
2021/04/09 00:00:40;;;;;;;10.98;6.90;;;;;;;-1.34;100.00;96339.38;1016054;29;20494;-52
2021/04/09 00:01:11;;;;;;;12.40;7.50;;;;;;;-1.33;100.00;96341.06;1016020;29;20244;-51
2021/04/09 00:01:44;;;;;;;9.88;7.15;;;;;;;-1.31;100.00;96336.75;1016029;29;20016;-50
2021/04/09 00:02:15;;;;;;;9.70;7.08;;;;;;;-1.32;100.00;96344.50;1015975;29;20383;-50
2021/04/09 00:02:46;;;;;;;10.35;7.15;;;;;;;-1.34;100.00;96346.25;1015997;29;20048;-50
2021/04/09 00:03:16;;;;;;;11.32;7.00;;;;;;;-1.42;100.00;96329.22;1016008;29;20016;-51
2021/04/09 00:03:47;;;;;;;10.90;7.13;;;;;;;-1.41;100.00;96337.78;1015756;29;20016;-50
2021/04/09 00:04:18;;;;;;;10.98;7.20;;;;;;;-1.41;100.00;96338.66;1008167;29;20025;-49
2021/04/09 00:04:48;;;;;;;11.07;7.20;;;;;;;-1.40;100.00;96340.31;1012157;29;20341;-51
2021/04/09 00:05:20;;;;;;;9.50;6.93;;;;;;;-1.40;100.00;96339.47;1016035;29;20068;-50
2021/04/09 00:05:51;;;;;;;10.95;7.10;;;;;;;-1.42;100.00;96342.06;1008204;29;20024;-50
2021/04/09 00:06:22;;;;;;;9.18;6.90;;;;;;;-1.45;100.00;96341.28;1015873;29;20280;-49
2021/04/09 00:06:52;;;;;;;9.02;6.90;;;;;;;-1.45;100.00;96341.28;1008236;29;20021;-51
2021/04/09 00:07:23;;;;;;;14.82;8.27;;;;;;;-1.45;100.00;96338.69;1015989;29;20047;-49
2021/04/09 00:07:54;;;;;;;11.98;7.22;;;;;;;-1.47;100.00;96338.72;1027856;28;20026;-51
2021/04/09 00:08:24;;;;;;;11.93;7.43;;;;;;;-1.46;100.00;96337.88;1016035;29;20020;-51
2021/04/09 00:08:55;;;;;;;10.68;7.22;;;;;;;-1.44;100.00;96337.84;1015902;29;20046;-50
2021/04/09 00:09:26;;;;;;;10.98;7.03;;;;;;;-1.41;100.00;96336.06;1020020;29;20015;-50
2021/04/09 00:09:56;;;;;;;10.60;6.90;;;;;;;-1.40;100.00;96335.19;1019891;29;20154;-52
2021/04/09 00:10:28;;;;;;;11.98;6.60;;;;;;;-1.39;100.00;96338.59;1015917;29;20022;-50
2021/04/09 00:10:58;;;;;;;11.88;6.68;;;;;;;-1.37;100.00;96337.72;1023877;29;20019;-51
2021/04/09 00:11:29;;;;;;;11.50;7.28;;;;;;;-1.33;100.00;96337.63;1020017;29;20327;-50
2021/04/09 00:12:00;;;;;;;11.27;6.10;;;;;;;-1.32;100.00;96339.34;1015984;29;20422;-49
2021/04/09 00:12:33;;;;;;;10.18;6.93;;;;;;;-1.32;100.00;96334.22;1011951;29;20036;-51
2021/04/09 00:13:05;;;;;;;11.18;6.63;;;;;;;-1.36;100.00;96338.56;1012054;29;20024;-50
2021/04/09 00:13:35;;;;;;;12.73;6.38;;;;;;;-1.32;100.00;96341.91;1004327;29;20258;-51
2021/04/09 00:14:07;;;;;;;8.15;6.30;;;;;;;-1.33;100.00;96337.63;1011924;29;20320;-49
2021/04/09 00:14:38;;;;;;;10.48;6.47;;;;;;;-1.32;100.00;96334.22;1015973;29;20499;-50
2021/04/09 00:15:10;;;;;;;10.27;7.35;;;;;;;-1.32;100.00;96334.22;1012025;29;20304;-50
2021/04/09 00:15:41;;;;;;;8.50;6.50;;;;;;;-1.32;100.00;96339.34;1012175;29;20309;-50
2021/04/09 00:16:12;;;;;;;10.25;6.65;;;;;;;-1.32;100.00;96337.63;1015920;29;20849;-50
2021/04/09 00:16:43;;;;;;;10.57;6.40;;;;;;;-1.27;100.00;96337.56;1012445;29;20436;-51
2021/04/09 00:17:13;;;;;;;9.00;6.32;;;;;;;-1.27;100.00;96337.56;1004307;29;20450;-51
2021/04/09 00:17:44;;;;;;;13.27;6.20;;;;;;;-1.25;100.00;96333.22;1015945;29;20122;-50
2021/04/09 00:18:15;;;;;;;12.75;7.00;;;;;;;-1.25;100.00;96339.22;1015899;29;20069;-52
2021/04/09 00:18:45;;;;;;;10.65;6.80;;;;;;;-1.33;100.00;96332.50;1008147;29;20021;-50
2021/04/09 00:19:17;;;;;;;9.77;6.80;;;;;;;-1.33;100.00;96337.63;1012016;29;20103;-50
2021/04/09 00:19:48;;;;;;;8.85;6.45;;;;;;;-1.33;100.00;96335.94;1012017;29;20522;-50
2021/04/09 00:20:21;;;;;;;9.75;6.15;;;;;;;-1.31;100.00;96334.19;1012039;29;20296;-52
2021/04/09 00:20:51;;;;;;;10.05;6.38;;;;;;;-1.31;100.00;96333.34;1019805;29;20019;-51
2021/04/09 00:21:22;;;;;;;9.63;5.97;;;;;;;-1.33;100.00;96322.22;1008218;29;20269;-50
2021/04/09 00:21:53;;;;;;;10.43;6.40;;;;;;;-1.32;100.00;96329.06;1012127;29;20017;-50
2021/04/09 00:22:23;;;;;;;10.93;6.55;;;;;;;-1.30;100.00;96327.31;1012000;29;20052;-51
2021/04/09 00:22:54;;;;;;;9.73;5.90;;;;;;;-1.29;100.00;96323.88;1015816;29;20028;-50
2021/04/09 00:23:25;;;;;;;11.82;6.40;;;;;;;-1.29;100.00;96329.88;1015842;29;20020;-50
2021/04/09 00:23:56;;;;;;;13.48;6.30;;;;;;;-1.28;100.00;96326.41;1019634;29;20355;-50
2021/04/09 00:24:27;;;;;;;8.90;5.50;;;;;;;-1.27;100.00;96324.69;1012123;29;20023;-51
2021/04/09 00:24:57;;;;;;;11.40;5.88;;;;;;;-1.28;100.00;96321.25;1008117;29;20025;-51
2021/04/09 00:25:28;;;;;;;10.15;6.35;;;;;;;-1.26;100.00;96323.81;1012096;29;20024;-50
2021/04/09 00:26:00;;;;;;;12.52;5.63;;;;;;;-1.27;100.00;96322.13;1015947;29;20027;-50
2021/04/09 00:26:31;;;;;;;10.98;6.13;;;;;;;-1.34;100.00;96315.41;1015969;29;20447;-50
2021/04/09 00:27:01;;;;;;;9.50;6.45;;;;;;;-1.34;100.00;96326.50;1023688;29;20267;-50
2021/04/09 00:27:32;;;;;;;10.68;5.82;;;;;;;-1.31;100.00;96325.63;1023784;29;20027;-50
2021/04/09 00:28:03;;;;;;;9.45;5.60;;;;;;;-1.29;100.00;96326.47;1016116;29;20035;-49
2021/04/09 00:28:34;;;;;;;11.95;6.15;;;;;;;-1.27;100.00;96327.28;1019874;29;20024;-50
2021/04/09 00:29:05;;;;;;;9.98;6.38;;;;;;;-1.27;100.00;96322.13;1019772;29;20027;-49
2021/04/09 00:29:35;;;;;;;9.55;5.88;;;;;;;-1.25;100.00;96317.81;1012006;29;20055;-51
2021/04/09 00:30:07;;;;;;;14.45;5.60;;;;;;;-1.27;100.00;96317.00;1008247;29;20057;-49
2021/04/09 00:30:38;;;;;;;8.26;6.00;;;;;;;-1.24;100.00;96322.06;1019792;29;20024;-50
2021/04/09 00:31:09;;;;;;;10.70;6.13;;;;;;;-1.25;100.00;96323.78;1019656;29;20072;-50
2021/04/09 00:31:40;;;;;;;8.52;5.50;;;;;;;-1.27;100.00;96322.13;1015855;29;20257;-50
2021/04/09 00:32:11;;;;;;;11.27;6.05;;;;;;;-1.27;100.00;96322.13;1019847;29;20091;-50
2021/04/09 00:32:41;;;;;;;9.60;5.88;;;;;;;-1.28;100.00;96320.41;1019816;29;20091;-53
2021/04/09 00:33:12;;;;;;;10.88;5.53;;;;;;;-1.32;100.00;96317.06;1019719;29;20023;-50
2021/04/09 00:33:43;;;;;;;10.13;5.95;;;;;;;-1.31;100.00;96320.50;1015701;29;20035;-50
2021/04/09 00:34:13;;;;;;;9.65;5.85;;;;;;;-1.34;100.00;96321.38;1008174;29;20033;-51
2021/04/09 00:34:44;;;;;;;10.70;6.03;;;;;;;-1.35;100.00;96322.28;1008220;29;20454;-50
2021/04/09 00:35:15;;;;;;;10.05;5.82;;;;;;;-1.37;100.00;96321.41;1015801;29;20020;-51
2021/04/09 00:35:46;;;;;;;9.15;5.82;;;;;;;-1.38;100.00;96317.16;1008133;29;20064;-50
2021/04/09 00:36:17;;;;;;;10.85;5.90;;;;;;;-1.41;100.00;96318.09;1015916;29;20419;-50
2021/04/09 00:36:48;;;;;;;12.00;6.05;;;;;;;-1.41;100.00;96317.22;1015880;29;20833;-52
2021/04/09 00:37:19;;;;;;;9.35;5.38;;;;;;;-1.38;100.00;96315.44;1019887;29;20353;-50
2021/04/09 00:37:50;;;;;;;9.75;5.90;;;;;;;-1.36;100.00;96312.84;1012020;29;20361;-51
2021/04/09 00:38:21;;;;;;;11.60;5.45;;;;;;;-1.35;100.00;96321.41;1011968;29;20031;-50
2021/04/09 00:38:52;;;;;;;10.68;5.45;;;;;;;-1.37;100.00;96309.44;1015921;29;20279;-52
2021/04/09 00:39:23;;;;;;;9.40;5.47;;;;;;;-1.37;100.00;96319.72;1019665;29;20090;-50
2021/04/09 00:39:53;;;;;;;10.27;6.18;;;;;;;-1.38;100.00;96314.59;1015910;29;20016;-49
2021/04/09 00:40:24;;;;;;;12.00;5.88;;;;;;;-1.39;100.00;96318.03;1008229;29;20519;-51
2021/04/09 00:40:55;;;;;;;8.77;6.15;;;;;;;-1.39;100.00;96315.47;1012034;29;20406;-50
2021/04/09 00:41:26;;;;;;;9.73;5.95;;;;;;;-1.40;100.00;96319.75;1008089;29;20025;-51
2021/04/09 00:41:57;;;;;;;10.82;5.95;;;;;;;-1.44;100.00;96320.69;1011947;29;20048;-50
2021/04/09 00:42:27;;;;;;;8.98;5.60;;;;;;;-1.44;100.00;96312.16;1015724;29;20264;-50
2021/04/09 00:42:58;;;;;;;16.83;6.22;;;;;;;-1.46;100.00;96312.16;1015899;29;20016;-50
2021/04/09 00:43:29;;;;;;;8.75;5.65;;;;;;;-1.45;100.00;96315.56;1011771;29;20111;-48
2021/04/09 00:44:00;;;;;;;8.57;5.78;;;;;;;-1.48;100.00;96313.91;1015687;29;20482;-51
2021/04/09 00:44:31;;;;;;;8.95;5.57;;;;;;;-1.49;100.00;96311.38;1015944;29;20240;-50
2021/04/09 00:45:02;;;;;;;9.30;5.60;;;;;;;-1.46;100.00;96312.16;1008089;29;20017;-48
2021/04/09 00:45:40;;;;;;;7.43;5.10;;;;;;;-1.45;100.00;96315.56;1011841;29;20077;-51
2021/04/09 00:46:11;;;;;;;11.35;6.03;;;;;;;-1.49;100.00;96312.22;1015757;29;20356;-50
2021/04/09 00:46:41;;;;;;;8.80;5.44;;;;;;;-1.51;100.00;96313.13;1023712;29;20255;-50
2021/04/09 00:47:13;;;;;;;9.63;5.97;;;;;;;-1.54;100.00;96318.31;1023707;29;20031;-51
2021/04/09 00:47:44;;;;;;;11.02;5.70;;;;;;;-1.54;100.00;96315.72;1011853;29;20022;-50
2021/04/09 00:48:15;;;;;;;10.90;6.22;;;;;;;-1.55;100.00;96309.75;1004297;29;20749;-50
2021/04/09 00:48:45;;;;;;;11.27;6.18;;;;;;;-1.51;100.00;96311.38;1008081;29;20028;-50
2021/04/09 00:49:16;;;;;;;10.13;5.82;;;;;;;-1.50;100.00;96309.66;1015915;29;20486;-52
2021/04/09 00:49:47;;;;;;;9.23;5.30;;;;;;;-1.47;100.00;96314.75;1011885;29;20019;-51
2021/04/09 00:50:18;;;;;;;9.82;5.68;;;;;;;-1.49;100.00;96309.63;1012055;29;20103;-50
2021/04/09 00:50:48;;;;;;;10.20;5.55;;;;;;;-1.48;100.00;96307.91;1004343;29;20163;-52
2021/04/09 00:51:19;;;;;;;11.55;6.07;;;;;;;-1.50;100.00;96309.66;1008053;29;20028;-50
2021/04/09 00:51:50;;;;;;;10.40;6.15;;;;;;;-1.50;100.00;96315.66;1011819;29;20016;-50
2021/04/09 00:52:22;;;;;;;9.15;5.13;;;;;;;-1.50;100.00;96313.09;1011938;29;20024;-50
2021/04/09 00:52:52;;;;;;;10.60;5.80;;;;;;;-1.53;100.00;96313.13;1004191;29;20116;-51
2021/04/09 00:53:23;;;;;;;11.82;6.05;;;;;;;-1.50;100.00;96312.22;1011895;29;20245;-50
2021/04/09 00:53:54;;;;;;;10.23;6.13;;;;;;;-1.51;100.00;96313.13;1019295;29;20023;-50
2021/04/09 00:54:25;;;;;;;10.63;6.05;;;;;;;-1.54;100.00;96308.84;1011942;29;20403;-50
2021/04/09 00:54:56;;;;;;;8.80;5.40;;;;;;;-1.53;100.00;96304.59;1019746;29;20254;-50
2021/04/09 00:55:28;;;;;;;12.82;5.65;;;;;;;-1.53;100.00;96307.16;1015727;29;20020;-50
2021/04/09 00:56:00;;;;;;;10.48;5.95;;;;;;;-1.54;100.00;96310.59;1011920;29;20648;-52
2021/04/09 00:56:31;;;;;;;9.27;5.30;;;;;;;-1.52;100.00;96308.84;1011826;29;20257;-52
2021/04/09 00:57:01;;;;;;;11.13;6.15;;;;;;;-1.52;100.00;96308.84;1007928;29;20254;-50
2021/04/09 00:57:32;;;;;;;10.45;5.93;;;;;;;-1.52;100.00;96307.13;1008087;29;20069;-50
2021/04/09 00:58:03;;;;;;;8.82;5.10;;;;;;;-1.51;100.00;96303.69;1011874;29;20017;-51
2021/04/09 00:58:34;;;;;;;9.70;5.55;;;;;;;-1.51;100.00;96313.97;1015924;29;20028;-50
2021/04/09 00:59:04;;;;;;;12.85;6.57;;;;;;;-1.53;100.00;96304.59;1011497;29;20131;-51
2021/04/09 00:59:35;;;;;;;8.20;5.70;;;;;;;-1.52;100.00;96311.41;1015402;29;20016;-50
2021/04/09 01:00:08;;;;;;;11.50;5.35;;;;;;;-1.55;100.00;96307.19;1011708;29;20024;-50
2021/04/09 01:00:39;;;;;;;10.45;5.70;;;;;;;-1.59;100.00;96298.69;1012091;29;20422;-51
2021/04/09 01:01:10;;;;;;;10.02;5.68;;;;;;;-1.56;100.00;96310.59;1015844;29;20268;-51
2021/04/09 01:01:40;;;;;;;9.63;5.60;;;;;;;-1.58;100.00;96304.66;1011911;29;20495;-50
2021/04/09 01:02:11;;;;;;;13.85;5.80;;;;;;;-1.59;100.00;96306.38;1007945;29;20095;-50
2021/04/09 01:02:42;;;;;;;8.77;4.90;;;;;;;-1.58;100.00;96307.22;1008009;29;20099;-49
2021/04/09 01:03:13;;;;;;;10.23;5.53;;;;;;;-1.59;100.00;96306.38;1019736;29;20553;-50
2021/04/09 01:03:43;;;;;;;9.05;5.70;;;;;;;-1.63;100.00;96304.75;1023472;29;20039;-51
2021/04/09 01:04:14;;;;;;;9.18;5.50;;;;;;;-1.61;100.00;96307.28;1015650;29;20030;-51
2021/04/09 01:04:45;;;;;;;8.85;5.57;;;;;;;-1.61;100.00;96305.56;1019755;29;20075;-50
2021/04/09 01:05:16;;;;;;;11.02;5.57;;;;;;;-1.64;100.00;96302.19;1015892;29;20091;-49
2021/04/09 01:05:46;;;;;;;8.80;6.15;;;;;;;-1.64;100.00;96302.19;1004277;29;20503;-50
2021/04/09 01:06:19;;;;;;;8.98;5.97;;;;;;;-1.65;100.00;96303.94;1011790;29;20296;-50
2021/04/09 01:06:49;;;;;;;8.77;5.80;;;;;;;-1.66;100.00;96302.22;1015795;29;20028;-51
2021/04/09 01:07:20;;;;;;;9.90;5.70;;;;;;;-1.67;100.00;96304.81;1011987;29;20281;-51
2021/04/09 01:07:51;;;;;;;12.30;6.10;;;;;;;-1.66;100.00;96298.81;1015894;29;20527;-51
2021/04/09 01:08:22;;;;;;;9.27;6.13;;;;;;;-1.66;100.00;96301.38;1019641;29;20015;-50
2021/04/09 01:08:52;;;;;;;9.70;5.38;;;;;;;-1.65;100.00;96303.94;1015748;29;20028;-49
2021/04/09 01:09:23;;;;;;;12.05;6.70;;;;;;;-1.62;100.00;96301.28;1011894;29;20024;-52
2021/04/09 01:09:54;;;;;;;8.48;5.35;;;;;;;-1.62;100.00;96301.28;1011994;29;20107;-50
2021/04/09 01:10:25;;;;;;;9.15;5.63;;;;;;;-1.82;100.00;96269.94;1015712;29;20058;-51
2021/04/09 01:10:56;;;;;;;8.73;5.80;;;;;;;-1.66;100.00;96307.34;1019599;29;20274;-52
2021/04/09 01:11:27;;;;;;;9.58;5.54;;;;;;;-1.60;100.00;96298.69;1015638;29;20030;-51
2021/04/09 01:11:58;;;;;;;9.40;5.40;;;;;;;-1.56;100.00;96295.19;1015720;29;20043;-50
2021/04/09 01:12:28;;;;;;;12.80;5.40;;;;;;;-1.57;100.00;96296.09;1007982;29;20032;-51
2021/04/09 01:12:59;;;;;;;8.07;4.93;;;;;;;-1.60;100.00;96298.69;1015756;29;20016;-50
2021/04/09 01:13:30;;;;;;;8.70;5.30;;;;;;;-1.61;100.00;96294.44;1019512;29;20057;-50
2021/04/09 01:14:01;;;;;;;10.08;5.88;;;;;;;-1.63;100.00;96299.59;1015639;29;20658;-50
2021/04/09 01:14:32;;;;;;;10.73;5.75;;;;;;;-1.65;100.00;96295.34;1011875;29;20033;-50
2021/04/09 01:15:05;;;;;;;8.68;5.63;;;;;;;-1.63;100.00;96296.19;1015644;29;20271;-50
2021/04/09 01:15:36;;;;;;;9.10;5.75;;;;;;;-1.63;100.00;96297.03;1008005;29;20114;-52
2021/04/09 01:16:10;;;;;;;8.68;5.25;;;;;;;-1.64;100.00;96289.34;1008006;29;20289;-50
2021/04/09 01:16:53;;;;;;;11.76;5.82;;;;;;;-1.64;100.00;96287.63;1015722;29;20491;-50
2021/04/09 01:17:25;;;;;;;8.12;5.24;;;;;;;-1.63;100.00;96289.34;1015686;29;20035;-52
2021/04/09 01:18:10;;;;;;;9.10;5.38;;;;;;;-1.61;100.00;96286.75;1019716;29;20037;-52
2021/04/09 01:18:56;;;;;;;8.02;5.43;;;;;;;-1.65;100.00;96290.22;1019733;29;20278;-50
2021/04/09 01:19:47;;;;;;;7.85;5.28;;;;;;;-1.64;100.00;96286.78;1023555;29;20259;-50
2021/04/09 01:20:29;;;;;;;10.05;5.50;;;;;;;-1.64;100.00;96286.78;1015785;29;20669;-51
2021/04/09 01:21:09;;;;;;;11.22;5.44;;;;;;;-1.66;100.00;96284.22;1015888;29;20032;-50
2021/04/09 01:21:44;;;;;;;8.55;5.60;;;;;;;-1.61;100.00;96284.16;1011906;29;20028;-52
2021/04/09 01:22:15;;;;;;;11.68;5.47;;;;;;;-1.63;100.00;96283.34;1011768;29;20089;-49
2021/04/09 01:22:58;;;;;;;10.48;5.40;;;;;;;-1.63;100.00;96285.91;1011860;29;20937;-50
2021/04/09 01:23:39;;;;;;;7.97;5.40;;;;;;;-1.65;100.00;96287.63;1011744;29;20033;-49
2021/04/09 01:24:32;;;;;;;8.58;6.00;;;;;;;-1.66;100.00;96283.41;1015719;29;20272;-51
2021/04/09 01:25:13;;;;;;;10.30;5.07;;;;;;;-1.67;100.00;96284.25;1020075;29;20436;-49
2021/04/09 01:25:59;;;;;;;8.45;5.65;;;;;;;-1.69;100.00;96280.88;1015782;29;20264;-50
2021/04/09 01:26:49;;;;;;;8.34;5.38;;;;;;;-1.64;100.00;96279.91;1011780;29;20802;-52
2021/04/09 01:27:39;;;;;;;10.27;5.10;;;;;;;-1.62;100.00;96279.91;1011726;29;20024;-50
2021/04/09 01:28:22;;;;;;;11.00;5.36;;;;;;;-1.65;100.00;96285.06;1009243;29;20025;-51
2021/04/09 01:29:12;;;;;;;10.54;5.62;;;;;;;-1.70;100.00;96280.03;1012215;29;20028;-50
2021/04/09 01:30:02;;;;;;;7.97;5.35;;;;;;;-1.67;100.00;96284.25;1015943;29;20072;-51
2021/04/09 01:30:53;;;;;;;9.90;5.60;;;;;;;-1.69;100.00;96288.56;1013139;29;20557;-50
2021/04/09 01:31:41;;;;;;;11.10;5.36;;;;;;;-1.71;100.00;96282.63;1016914;29;20058;-50
2021/04/09 01:32:11;;;;;;;9.42;5.86;;;;;;;-1.74;100.00;96280.13;1016745;29;20032;-50
2021/04/09 01:32:42;;;;;;;8.57;5.55;;;;;;;-1.76;100.00;96283.53;1015677;29;20466;-52
2021/04/09 01:33:13;;;;;;;10.60;5.90;;;;;;;-1.74;100.00;96280.13;1011764;29;20115;-50
2021/04/09 01:33:47;;;;;;;9.77;5.55;;;;;;;-1.76;100.00;96280.97;1015534;29;20036;-49
2021/04/09 01:34:18;;;;;;;8.44;4.84;;;;;;;-1.73;100.00;96284.38;1015571;29;20020;-50
2021/04/09 01:34:52;;;;;;;9.40;5.80;;;;;;;-1.71;100.00;96282.63;1019598;29;20393;-48
2021/04/09 01:35:24;;;;;;;8.66;5.24;;;;;;;-1.69;100.00;96278.28;1027498;28;20269;-50
2021/04/09 01:35:57;;;;;;;8.20;5.24;;;;;;;-1.72;100.00;96280.94;1015536;29;20144;-51
2021/04/09 01:36:47;;;;;;;8.72;5.12;;;;;;;-1.71;100.00;96278.31;1015659;29;20020;-50
2021/04/09 01:37:19;;;;;;;;;;;;;;;-1.71;100.00;96280.88;1020124;29;20023;-49
2021/04/09 01:37:55;;;;;;;9.60;5.26;;;;;;;-1.71;100.00;96280.03;1011793;29;19911;-49
2021/04/09 01:38:28;;;;;;;8.64;5.08;;;;;;;-1.71;100.00;96280.03;1011863;29;20020;-49
2021/04/09 01:39:10;;;;;;;7.57;5.30;;;;;;;-1.74;100.00;96286.09;1011798;29;20173;-49
2021/04/09 01:39:42;;;;;;;10.46;5.48;;;;;;;-1.75;100.00;96274.09;1011718;29;20352;-52
2021/04/09 01:40:22;;;;;;;11.73;6.10;;;;;;;-1.75;100.00;96284.38;1019592;29;20119;-49
2021/04/09 01:40:53;;;;;;;11.88;6.13;;;;;;;-1.84;100.00;96258.84;1019592;29;20302;-50
2021/04/09 01:41:23;;;;;;;9.18;6.15;;;;;;;-1.74;100.00;96277.56;1011888;29;20021;-49
2021/04/09 01:41:54;;;;;;;8.02;5.15;;;;;;;-1.76;100.00;96273.28;1019466;29;20362;-50
2021/04/09 01:42:25;;;;;;;10.13;5.40;;;;;;;-1.75;100.00;96276.69;1007835;29;20048;-49
2021/04/09 01:42:58;;;;;;;11.07;6.15;;;;;;;-1.73;100.00;96271.53;1015714;29;20493;-49
2021/04/09 01:43:29;;;;;;;10.07;5.45;;;;;;;-1.71;100.00;96277.47;1019488;29;20020;-49
2021/04/09 01:44:01;;;;;;;8.00;5.60;;;;;;;-1.72;100.00;96273.22;1015449;29;20259;-49
2021/04/09 01:44:32;;;;;;;11.13;5.28;;;;;;;-1.71;100.00;96280.88;1011771;29;20025;-49
2021/04/09 01:45:03;;;;;;;8.32;5.30;;;;;;;-1.73;100.00;96280.06;1011792;29;20257;-49
2021/04/09 01:45:34;;;;;;;9.15;5.18;;;;;;;-1.74;100.00;96280.13;1015725;29;20252;-50
2021/04/09 01:46:05;;;;;;;10.32;6.07;;;;;;;-1.76;100.00;96270.69;1019492;29;20264;-50
2021/04/09 01:46:39;;;;;;;8.30;5.43;;;;;;;-1.76;100.00;96273.28;1019619;29;20028;-49
2021/04/09 01:47:10;;;;;;;8.90;5.13;;;;;;;-1.78;100.00;96272.44;1019486;29;20071;-50
2021/04/09 01:47:41;;;;;;;10.65;6.22;;;;;;;-1.80;100.00;96274.19;1007897;29;20286;-49
2021/04/09 01:48:12;;;;;;;8.07;5.28;;;;;;;-1.80;100.00;96269.06;1019430;29;20028;-49
2021/04/09 01:48:44;;;;;;;10.27;5.65;;;;;;;-1.79;100.00;96268.16;1015674;29;20299;-51
2021/04/09 01:49:15;;;;;;;9.80;5.90;;;;;;;-1.78;100.00;96275.03;1015819;29;20498;-49
2021/04/09 01:49:45;;;;;;;9.00;5.10;;;;;;;-1.77;100.00;96266.44;1011811;29;20256;-51
2021/04/09 01:50:17;;;;;;;9.57;5.65;;;;;;;-1.77;100.00;96270.72;1015556;29;20028;-49
2021/04/09 01:50:48;;;;;;;7.78;5.30;;;;;;;-1.79;100.00;96270.75;1007943;29;20061;-50
2021/04/09 01:51:19;;;;;;;10.35;5.88;;;;;;;-1.80;100.00;96261.34;1011727;29;20265;-50
2021/04/09 01:51:50;;;;;;;8.73;5.38;;;;;;;-1.78;100.00;96258.78;1015790;29;20028;-50
2021/04/09 01:52:21;;;;;;;9.02;5.30;;;;;;;-1.79;100.00;96263.03;1011637;29;20478;-49
2021/04/09 01:52:52;;;;;;;10.42;5.50;;;;;;;-1.80;100.00;96265.66;1007904;29;20112;-49
2021/04/09 01:53:23;;;;;;;9.80;5.78;;;;;;;-1.80;100.00;96261.34;1011782;29;20043;-50
2021/04/09 01:53:53;;;;;;;10.27;5.90;;;;;;;-1.83;100.00;96261.41;1011561;29;20024;-50
2021/04/09 01:54:25;;;;;;;7.85;5.20;;;;;;;-1.85;100.00;96254.59;1015591;29;20080;-50
2021/04/09 01:54:56;;;;;;;12.95;6.63;;;;;;;-1.85;100.00;96262.31;1011835;29;20444;-50
2021/04/09 01:55:27;;;;;;;9.40;6.32;;;;;;;-1.90;100.00;96249.53;1007936;29;20268;-49
2021/04/09 01:55:58;;;;;;;9.65;5.70;;;;;;;-1.88;100.00;96263.19;1023733;29;20147;-50
2021/04/09 01:56:28;;;;;;;8.38;5.78;;;;;;;-1.88;100.00;96257.22;1015596;29;20507;-49
2021/04/09 01:56:59;;;;;;;9.18;5.95;;;;;;;-1.87;100.00;96258.91;1015680;29;20020;-52
2021/04/09 01:57:30;;;;;;;8.65;5.45;;;;;;;-1.99;100.00;96235.13;1019542;29;20107;-49
2021/04/09 01:58:00;;;;;;;9.95;5.70;;;;;;;-1.85;100.00;96255.44;1019629;29;20062;-50
2021/04/09 01:58:31;;;;;;;9.98;5.70;;;;;;;-1.84;100.00;96254.59;1015600;29;20133;-49
2021/04/09 01:59:02;;;;;;;8.45;5.50;;;;;;;-1.83;100.00;96258.84;1015593;29;20475;-49
2021/04/09 01:59:33;;;;;;;10.38;5.30;;;;;;;-1.81;100.00;96258.81;1015811;29;20031;-50
2021/04/09 02:00:05;;;;;;;8.90;5.32;;;;;;;-1.83;100.00;96256.25;1023633;29;20493;-49
2021/04/09 02:00:36;;;;;;;8.43;5.13;;;;;;;-1.85;100.00;96255.44;1023444;29;20359;-48
2021/04/09 02:01:08;;;;;;;10.35;6.35;;;;;;;-1.88;100.00;96257.22;1019547;29;20326;-49
2021/04/09 02:01:39;;;;;;;9.40;5.15;;;;;;;-1.91;100.00;96255.56;1019584;29;20051;-49
2021/04/09 02:02:10;;;;;;;9.20;5.53;;;;;;;-1.91;100.00;96259.84;1023549;29;20656;-49
2021/04/09 02:02:43;;;;;;;8.43;6.22;;;;;;;-1.91;100.00;96258.13;1015645;29;20355;-49
2021/04/09 02:03:14;;;;;;;10.18;6.12;;;;;;;-1.94;100.00;96247.06;1015562;29;20027;-51
2021/04/09 02:03:47;;;;;;;8.77;5.63;;;;;;;-1.93;100.00;96251.28;1015474;29;20024;-50
2021/04/09 02:04:18;;;;;;;9.93;5.90;;;;;;;-1.95;100.00;96259.06;1011805;29;20025;-51
2021/04/09 02:04:49;;;;;;;9.30;5.43;;;;;;;-1.95;100.00;96256.47;1011571;29;20317;-50
2021/04/09 02:05:23;;;;;;;9.50;5.82;;;;;;;-1.93;100.00;96257.31;1015709;29;20295;-51
2021/04/09 02:05:54;;;;;;;9.75;6.43;;;;;;;-1.94;100.00;96253.03;1004049;29;20036;-51
2021/04/09 02:06:25;;;;;;;10.57;6.60;;;;;;;-2.00;100.00;96248.84;1004028;29;20262;-50
2021/04/09 02:06:56;;;;;;;11.25;5.70;;;;;;;-2.06;100.00;96241.25;1007771;29;20258;-50
2021/04/09 02:07:27;;;;;;;8.90;6.36;;;;;;;-1.95;100.00;96251.34;1011836;29;20039;-50
2021/04/09 02:07:58;;;;;;;9.68;5.78;;;;;;;-1.96;100.00;96252.19;1015651;29;20587;-49
2021/04/09 02:08:30;;;;;;;9.10;6.10;;;;;;;-1.98;100.00;96254.78;1011757;29;20025;-49
2021/04/09 02:09:01;;;;;;;10.08;6.32;;;;;;;-2.00;100.00;96248.84;1007746;29;20496;-51
2021/04/09 02:09:32;;;;;;;9.27;5.22;;;;;;;-2.02;100.00;96252.31;1015741;29;20020;-51
2021/04/09 02:10:04;;;;;;;9.43;6.13;;;;;;;-2.01;100.00;96251.41;1011646;29;20020;-50
2021/04/09 02:10:36;;;;;;;12.06;5.78;;;;;;;-2.04;100.00;96251.50;1007990;29;20134;-50
2021/04/09 02:11:06;;;;;;;8.76;5.66;;;;;;;-2.03;100.00;96250.59;1012142;29;20046;-49
2021/04/09 02:11:37;;;;;;;9.57;5.75;;;;;;;-2.05;100.00;96247.22;1012504;29;20024;-49
2021/04/09 02:12:09;;;;;;;9.77;6.00;;;;;;;-2.00;100.00;96253.13;1012450;29;20036;-49
2021/04/09 02:12:42;;;;;;;9.20;6.05;;;;;;;-2.01;100.00;96257.44;1012500;29;20510;-49
2021/04/09 02:13:12;;;;;;;10.38;5.57;;;;;;;-2.03;100.00;96245.47;1012333;29;20336;-51
2021/04/09 02:13:43;;;;;;;9.35;6.07;;;;;;;-2.04;100.00;96248.94;1012305;29;20261;-50
2021/04/09 02:14:15;;;;;;;10.77;5.68;;;;;;;-2.05;100.00;96250.63;1012525;29;20036;-52
2021/04/09 02:14:46;;;;;;;10.70;5.85;;;;;;;-2.07;100.00;96252.38;1008638;29;20502;-50
2021/04/09 02:15:21;;;;;;;8.13;5.07;;;;;;;-2.08;100.00;96250.69;1008551;29;20250;-50
2021/04/09 02:15:54;;;;;;;10.05;6.55;;;;;;;-2.07;100.00;96248.97;1012468;29;20257;-49
2021/04/09 02:16:24;;;;;;;9.57;6.38;;;;;;;-2.05;100.00;96253.19;1016432;29;20252;-49
2021/04/09 02:16:55;;;;;;;10.50;6.40;;;;;;;-2.04;100.00;96247.19;1016334;29;20253;-49
2021/04/09 02:17:26;;;;;;;10.57;6.25;;;;;;;-2.03;100.00;96251.44;1012419;29;20078;-49
2021/04/09 02:17:57;;;;;;;11.75;6.22;;;;;;;-2.02;100.00;96248.03;1016465;29;20016;-50
2021/04/09 02:18:28;;;;;;;10.85;6.05;;;;;;;-2.02;100.00;96242.88;1012505;29;20104;-50
2021/04/09 02:18:59;;;;;;;10.32;6.48;;;;;;;-2.02;100.00;96248.03;1016381;29;20450;-50
2021/04/09 02:19:30;;;;;;;9.02;5.90;;;;;;;-2.01;100.00;96236.03;1012387;29;20141;-49
2021/04/09 02:20:00;;;;;;;13.45;6.82;;;;;;;-2.00;100.00;96245.44;1012494;29;20107;-51
2021/04/09 02:20:31;;;;;;;9.88;6.28;;;;;;;-2.01;100.00;96244.59;1004752;29;20072;-50
2021/04/09 02:21:03;;;;;;;10.27;5.70;;;;;;;-2.03;100.00;96245.47;1008589;29;20153;-50
2021/04/09 02:21:34;;;;;;;13.35;6.40;;;;;;;-2.07;100.00;96241.25;1012504;29;20607;-49
2021/04/09 02:22:05;;;;;;;10.63;6.90;;;;;;;-2.08;100.00;96242.13;1012450;29;20264;-49
2021/04/09 02:22:36;;;;;;;9.85;6.20;;;;;;;-2.10;100.00;96243.88;1016348;29;20287;-50
2021/04/09 02:23:07;;;;;;;11.68;6.30;;;;;;;-2.10;100.00;96246.44;1016414;29;20340;-51
2021/04/09 02:23:37;;;;;;;10.60;6.70;;;;;;;-2.09;100.00;96245.56;1012171;29;20021;-48
2021/04/09 02:24:08;;;;;;;11.20;6.50;;;;;;;-2.08;100.00;96247.25;1008602;29;20021;-49
2021/04/09 02:24:39;;;;;;;13.57;6.63;;;;;;;-2.11;100.00;96249.88;1012452;29;20535;-50
2021/04/09 02:25:10;;;;;;;10.38;6.65;;;;;;;-2.13;100.00;96247.34;1012523;29;20031;-49
2021/04/09 02:25:41;;;;;;;10.70;6.57;;;;;;;-2.13;100.00;96239.63;1012310;29;20060;-50
2021/04/09 02:26:12;;;;;;;10.68;6.18;;;;;;;-2.16;100.00;96240.53;1020339;29;20350;-50
2021/04/09 02:26:43;;;;;;;11.10;6.60;;;;;;;-2.16;100.00;96249.94;1012362;29;20083;-51
2021/04/09 02:27:14;;;;;;;9.77;6.18;;;;;;;-2.15;100.00;96249.94;1020209;29;20027;-50
2021/04/09 02:27:45;;;;;;;12.60;6.00;;;;;;;-2.13;100.00;96261.91;1016201;29;20032;-51
2021/04/09 02:28:16;;;;;;;11.10;6.43;;;;;;;-2.13;100.00;96249.06;1012491;29;20656;-48
2021/04/09 02:28:47;;;;;;;9.00;6.30;;;;;;;-2.15;100.00;96247.34;1012427;29;20020;-50
2021/04/09 02:29:17;;;;;;;9.52;6.30;;;;;;;-2.19;100.00;96247.44;1012479;29;20029;-48